ADDS METAR Data INFO
IDs: Format: Raw Decoded Include TAF

Data at: 1041 UTC 19 Oct 2017

METAR for:KFXE (Ft Lauderdale/Execut, FL, US)
Text:KFXE 190953Z 00000KT 10SM CLR 23/23 A2997 RMK AO2 SLP152 T02330233
Temperature: 23.3°C ( 74°F)
Dewpoint: 23.3°C ( 74°F) [RH = 100%]
Pressure (altimeter):29.97 inches Hg (1015.0 mb) [Sea level pressure: 1015.2 mb]
Winds:calm
Visibility:10 or more sm (16+ km)
Ceiling:at least 12,000 feet AGL
Clouds:sky clear below 12,000 feet AGL